Time;durP1;ratioP1;P1;durP2;ratioP2;P2;SDS_P1;SDS_P2;PMS_P1;PMS_P2;Temp;Humidity;BMP_temperature;BMP_pressure;BME280_temperature;BME280_humidity;BME280_pressure;Samples;Min_cycle;Max_cycle;Signal;HPM_P1;HPM_P2
2022/06/22 00:01:44;;;;;;;6.75;4.82;;;;;;;14.70;81.30;98965.06;5068002;28;20048;-56
2022/06/22 00:04:20;;;;;;;9.13;4.72;;;;;;;14.87;79.71;98967.44;5068749;28;20113;-57
2022/06/22 00:06:55;;;;;;;9.00;5.18;;;;;;;14.76;80.38;98974.78;5067494;28;20025;-56
2022/06/22 00:09:34;;;;;;;10.10;5.28;;;;;;;14.82;78.86;98970.16;5068433;28;20738;-56
2022/06/22 00:11:59;;;;;;;13.40;5.30;;;;;;;14.82;78.94;98967.47;5037711;28;20032;-56
2022/06/22 00:14:36;;;;;;;12.70;5.07;;;;;;;14.79;79.30;98970.72;5048221;28;20394;-55
2022/06/22 00:17:01;;;;;;;12.38;4.90;;;;;;;14.59;79.75;98963.50;5046625;28;20153;-56
2022/06/22 00:19:45;;;;;;;8.52;5.00;;;;;;;14.66;78.93;98972.94;5050431;28;20558;-56
2022/06/22 00:22:21;;;;;;;11.18;5.07;;;;;;;14.57;79.53;98971.06;5064818;28;20555;-56
2022/06/22 00:25:00;;;;;;;9.52;5.38;;;;;;;14.78;78.78;98971.81;5062385;28;20020;-55
2022/06/22 00:27:27;;;;;;;9.77;4.78;;;;;;;14.52;79.42;98977.25;5042636;28;20031;-56
2022/06/22 00:30:13;;;;;;;13.75;5.70;;;;;;;14.56;79.69;98975.66;5050427;28;20031;-56
2022/06/22 00:32:39;;;;;;;10.52;5.28;;;;;;;14.88;77.75;98985.25;5066394;28;20032;-57
2022/06/22 00:35:43;;;;;;;12.95;5.40;;;;;;;15.03;77.34;98979.00;5061682;28;20029;-56
2022/06/22 00:38:16;;;;;;;12.65;5.53;;;;;;;15.01;77.99;98981.16;4986580;28;20030;-56
2022/06/22 00:40:41;;;;;;;10.38;5.75;;;;;;;14.75;78.98;98981.28;5055576;28;20044;-56
2022/06/22 00:43:07;;;;;;;8.13;5.22;;;;;;;14.73;80.33;98975.34;5025291;28;20032;-56
2022/06/22 00:45:34;;;;;;;11.90;5.30;;;;;;;14.47;81.28;98961.09;5065975;28;20098;-56
2022/06/22 00:48:05;;;;;;;9.25;4.53;;;;;;;14.32;82.31;98967.31;5038628;28;20024;-56
2022/06/22 00:51:00;;;;;;;9.10;4.82;;;;;;;14.22;83.30;98964.66;5049955;28;20024;-55
2022/06/22 00:53:52;;;;;;;11.00;5.10;;;;;;;13.79;86.16;98967.66;5037309;28;20646;-56
2022/06/22 00:56:22;;;;;;;14.95;5.60;;;;;;;13.95;85.61;98957.72;5057423;28;20112;-55
2022/06/22 00:59:02;;;;;;;9.10;5.00;;;;;;;14.02;84.27;98949.31;5023998;28;20454;-56
2022/06/22 01:01:42;;;;;;;8.20;5.07;;;;;;;13.99;84.50;98953.38;5063825;28;20028;-56
2022/06/22 01:04:34;;;;;;;8.70;5.03;;;;;;;13.88;84.91;98949.09;5066967;28;20028;-55
2022/06/22 01:07:22;;;;;;;11.55;5.78;;;;;;;13.78;85.62;98949.09;5067473;28;20029;-56
2022/06/22 01:10:06;;;;;;;10.13;5.63;;;;;;;13.77;85.88;98947.47;5062264;28;20075;-55
2022/06/22 01:12:42;;;;;;;9.38;5.28;;;;;;;13.73;85.97;98946.41;5035247;28;20136;-56
2022/06/22 01:15:09;;;;;;;9.95;5.90;;;;;;;13.45;87.30;98940.44;5067236;28;20055;-57
2022/06/22 01:17:50;;;;;;;9.07;5.32;;;;;;;13.56;86.21;98941.28;5066287;28;20114;-55
2022/06/22 01:20:21;;;;;;;;;;;;;;;13.63;86.96;98927.53;5062726;28;20509;-55
2022/06/22 01:23:08;;;;;;;9.77;5.20;;;;;;;13.59;86.71;98932.66;5066455;28;19927;-56
2022/06/22 01:25:39;;;;;;;8.85;5.78;;;;;;;13.68;86.24;98927.53;5047908;28;20058;-56
2022/06/22 01:28:05;;;;;;;10.65;5.57;;;;;;;13.67;85.72;98925.91;5066588;28;20074;-56
2022/06/22 01:30:41;;;;;;;9.77;5.20;;;;;;;13.48;86.27;98918.41;5049738;28;20029;-56
2022/06/22 01:33:25;;;;;;;7.43;5.32;;;;;;;13.33;87.80;98921.09;5049944;28;20563;-56
2022/06/22 01:35:53;;;;;;;9.57;5.35;;;;;;;13.10;89.20;98916.97;5067292;28;20013;-56
2022/06/22 01:38:24;;;;;;;9.25;5.82;;;;;;;13.31;88.31;98912.47;5043256;28;20033;-56
2022/06/22 01:41:11;;;;;;;7.80;5.75;;;;;;;13.53;86.91;98917.59;5067372;28;20107;-55
2022/06/22 01:43:46;;;;;;;11.63;6.30;;;;;;;13.48;87.37;98921.09;5066159;28;20032;-56
2022/06/22 01:46:19;;;;;;;8.02;5.63;;;;;;;13.51;86.08;98923.22;5066803;28;20176;-56
2022/06/22 01:48:54;;;;;;;11.50;5.55;;;;;;;13.41;87.92;98923.22;5066596;28;20025;-56
2022/06/22 01:51:19;;;;;;;11.23;5.90;;;;;;;13.31;88.28;98924.03;5049382;28;20116;-56
2022/06/22 01:54:12;;;;;;;9.95;5.60;;;;;;;13.05;89.09;98919.63;5066804;28;20178;-56
2022/06/22 01:57:17;;;;;;;10.75;5.80;;;;;;;13.10;89.28;98914.25;5038397;28;20033;-58
2022/06/22 01:59:47;;;;;;;8.63;5.28;;;;;;;13.21;88.27;98897.06;5059366;28;20076;-55
2022/06/22 02:02:16;;;;;;;9.23;6.18;;;;;;;13.12;88.72;98899.47;5066689;28;20028;-56
2022/06/22 02:04:54;;;;;;;11.38;6.60;;;;;;;13.38;87.10;98886.09;5069470;28;20036;-55
2022/06/22 02:07:48;;;;;;;13.25;6.18;;;;;;;13.38;87.03;98880.72;5050021;28;20171;-56
2022/06/22 02:10:25;;;;;;;14.77;6.78;;;;;;;13.29;87.47;98876.94;5041748;28;20537;-56
2022/06/22 02:13:11;;;;;;;14.00;6.45;;;;;;;13.23;88.72;98876.09;5070180;28;20060;-56
2022/06/22 02:15:40;;;;;;;16.58;6.97;;;;;;;13.39;88.12;98866.16;5044097;28;20101;-56
2022/06/22 02:18:11;;;;;;;11.88;6.30;;;;;;;13.43;86.95;98867.25;5070418;28;20822;-56
2022/06/22 02:20:37;;;;;;;11.05;6.22;;;;;;;13.31;87.35;98864.00;5023698;28;20443;-56
2022/06/22 02:23:21;;;;;;;10.90;6.63;;;;;;;13.32;87.93;98873.69;5070933;28;20028;-56
2022/06/22 02:25:56;;;;;;;10.40;6.40;;;;;;;13.32;88.91;98876.38;5031699;28;20090;-55
2022/06/22 02:28:22;;;;;;;11.90;6.53;;;;;;;13.33;88.42;98878.81;5069903;28;20469;-55
2022/06/22 02:30:47;;;;;;;9.43;6.55;;;;;;;13.38;88.29;98888.78;5052877;28;21568;-55
2022/06/22 02:33:13;;;;;;;9.77;6.35;;;;;;;13.58;88.40;98896.84;5049109;28;20482;-55
2022/06/22 02:35:38;;;;;;;10.57;7.03;;;;;;;13.52;87.33;98887.16;5068741;28;20066;-56
2022/06/22 02:38:05;;;;;;;13.68;6.15;;;;;;;13.45;86.27;98888.50;5052023;28;20024;-55
2022/06/22 02:40:32;;;;;;;8.68;5.38;;;;;;;13.22;86.36;98887.13;5052692;28;20082;-56
2022/06/22 02:45:42;;;;;;;9.13;5.90;;;;;;;13.36;86.14;98897.13;5051551;28;20101;-55
2022/06/22 02:48:22;;;;;;;8.55;5.70;;;;;;;13.00;87.91;98896.22;5051732;28;20025;-56
2022/06/22 02:51:01;;;;;;;7.60;5.90;;;;;;;12.82;88.17;98902.09;5036789;28;20016;-57
2022/06/22 02:53:33;;;;;;;8.25;5.50;;;;;;;12.64;91.78;98900.72;5051204;28;20123;-57
2022/06/22 02:55:58;;;;;;;13.55;6.85;;;;;;;13.05;92.52;98893.53;5051871;28;20154;-56
2022/06/22 02:58:34;;;;;;;11.02;6.75;;;;;;;13.35;89.33;98902.75;5069875;28;20052;-56
2022/06/22 03:01:01;;;;;;;8.77;5.85;;;;;;;13.19;88.24;98893.03;5069911;28;20110;-56
2022/06/22 03:03:27;;;;;;;11.50;6.00;;;;;;;13.04;88.83;98891.94;5069231;28;20035;-56
2022/06/22 03:05:54;;;;;;;7.82;5.53;;;;;;;12.88;88.73;98895.66;5069738;28;20091;-56
2022/06/22 03:08:20;;;;;;;11.15;5.95;;;;;;;12.70;89.66;98896.94;5039773;28;20102;-56
2022/06/22 03:10:49;;;;;;;9.45;6.03;;;;;;;12.40;92.74;98911.88;5040183;28;20489;-56
2022/06/22 03:13:16;;;;;;;11.93;6.93;;;;;;;12.45;93.06;98906.53;5051571;28;20047;-56
2022/06/22 03:15:42;;;;;;;13.10;6.82;;;;;;;12.55;93.09;98911.16;5068005;28;20382;-55
2022/06/22 03:18:09;;;;;;;10.43;6.75;;;;;;;12.68;92.92;98918.75;5030626;28;20530;-56
2022/06/22 03:20:43;;;;;;;12.93;6.95;;;;;;;12.77;92.74;98912.84;5042229;28;20032;-56
2022/06/22 03:23:18;;;;;;;13.23;7.22;;;;;;;12.90;91.82;98915.88;5028862;28;20303;-55
2022/06/22 03:25:47;;;;;;;15.70;7.40;;;;;;;13.01;91.50;98919.38;5035023;28;20382;-56
2022/06/22 03:28:15;;;;;;;9.73;6.25;;;;;;;13.04;88.67;98915.34;5069546;28;20078;-56
2022/06/22 03:30:55;;;;;;;8.02;5.60;;;;;;;13.60;86.93;98918.09;5022007;28;20032;-55
2022/06/22 03:33:32;;;;;;;10.95;5.93;;;;;;;14.32;81.84;98918.00;5049400;28;20059;-56
2022/06/22 03:36:00;;;;;;;14.35;5.80;;;;;;;14.67;79.02;98915.19;5069352;28;20021;-56
2022/06/22 03:38:36;;;;;;;9.75;6.35;;;;;;;14.43;82.33;98906.91;5050950;28;20028;-56
2022/06/22 03:41:07;;;;;;;11.20;5.80;;;;;;;15.16;80.73;98901.97;5030558;28;20100;-55
2022/06/22 03:43:40;;;;;;;9.80;5.43;;;;;;;15.35;79.58;98921.00;5041234;28;20040;-56
2022/06/22 03:46:17;;;;;;;9.80;5.90;;;;;;;16.08;76.92;98912.03;5036337;28;20074;-56
2022/06/22 03:48:45;;;;;;;13.60;5.45;;;;;;;16.04;73.81;98905.59;5040088;28;20059;-55
2022/06/22 03:51:19;;;;;;;13.73;5.22;;;;;;;15.73;73.62;98916.69;5019527;28;20041;-56
2022/06/22 03:53:47;;;;;;;10.63;5.10;;;;;;;15.84;74.51;98902.00;5029963;28;20483;-55
2022/06/22 03:56:15;;;;;;;9.43;5.13;;;;;;;16.93;70.05;98900.50;5069182;28;20386;-55
2022/06/22 03:58:41;;;;;;;15.27;5.53;;;;;;;16.89;71.16;98912.97;5035876;28;20033;-54
2022/06/22 04:01:07;;;;;;;13.55;5.20;;;;;;;16.77;70.32;98910.69;5049808;28;20032;-55
2022/06/22 04:03:32;;;;;;;8.57;4.55;;;;;;;16.35;72.13;98897.97;5035467;28;20036;-55
2022/06/22 04:05:58;;;;;;;8.95;4.75;;;;;;;17.27;68.22;98914.88;5047866;28;20383;-56
2022/06/22 04:08:32;;;;;;;10.38;4.90;;;;;;;16.33;70.69;98913.66;5046079;28;20013;-56
2022/06/22 04:11:00;;;;;;;13.75;5.70;;;;;;;15.07;75.95;98920.66;5023020;28;20483;-55
2022/06/22 04:13:33;;;;;;;9.27;4.70;;;;;;;14.26;80.59;98911.81;5067181;28;20060;-56
2022/06/22 04:16:02;;;;;;;8.23;4.97;;;;;;;14.13;83.34;98907.00;5049971;28;20035;-56
2022/06/22 04:18:46;;;;;;;12.43;5.95;;;;;;;14.64;80.08;98907.66;5068152;28;20028;-57
2022/06/22 04:21:18;;;;;;;11.55;5.68;;;;;;;14.66;80.21;98908.19;5018041;28;20107;-56
2022/06/22 04:24:14;;;;;;;8.57;5.30;;;;;;;15.31;77.96;98915.38;5024635;28;20032;-56
2022/06/22 04:26:51;;;;;;;13.85;5.88;;;;;;;15.36;77.04;98918.03;5062187;28;20045;-56
2022/06/22 04:29:22;;;;;;;9.82;5.93;;;;;;;15.99;74.29;98925.34;5051661;28;20035;-56
2022/06/22 04:31:56;;;;;;;13.07;5.80;;;;;;;16.20;73.48;98922.44;5032471;28;20037;-56
2022/06/22 04:34:52;;;;;;;7.45;4.57;;;;;;;16.13;72.96;98920.09;5051944;28;20387;-56
2022/06/22 04:37:38;;;;;;;13.65;5.15;;;;;;;15.51;75.88;98919.81;5064646;28;20056;-63
2022/06/22 04:40:18;;;;;;;13.07;5.93;;;;;;;15.74;74.64;98913.69;5037449;28;20535;-55
2022/06/22 04:42:44;;;;;;;13.32;5.70;;;;;;;15.24;77.46;98914.88;5024081;28;20044;-56
2022/06/22 04:45:29;;;;;;;9.27;5.90;;;;;;;15.53;76.30;98917.66;5068062;28;20032;-55
2022/06/22 04:48:07;;;;;;;13.45;5.60;;;;;;;15.76;75.49;98932.34;5064776;28;20528;-56
2022/06/22 04:50:34;;;;;;;12.73;5.60;;;;;;;16.18;74.17;98928.16;5047435;28;20025;-56
2022/06/22 04:53:00;;;;;;;10.50;5.40;;;;;;;16.21;73.60;98932.19;5065631;28;20040;-56
2022/06/22 04:55:26;;;;;;;12.35;5.93;;;;;;;16.48;72.16;98943.25;5039567;28;20410;-56
2022/06/22 04:57:54;;;;;;;8.45;5.95;;;;;;;17.16;69.93;98936.72;5049640;28;20039;-55
2022/06/22 05:00:22;;;;;;;20.13;6.70;;;;;;;18.91;63.40;98948.84;5037218;28;20021;-56
2022/06/22 05:02:50;;;;;;;12.88;5.65;;;;;;;19.97;60.04;98954.84;5067756;28;20039;-56
2022/06/22 05:05:20;;;;;;;14.05;5.05;;;;;;;19.74;61.12;98940.44;5049671;28;20518;-54
2022/06/22 05:07:49;;;;;;;12.50;5.20;;;;;;;18.57;63.83;98951.97;5046104;28;20059;-56
2022/06/22 05:10:33;;;;;;;11.00;5.10;;;;;;;18.36;65.90;98950.75;5066803;28;20500;-57
2022/06/22 05:13:01;;;;;;;16.33;4.90;;;;;;;19.49;62.67;98952.72;5063457;28;20032;-57
2022/06/22 05:15:34;;;;;;;17.00;4.97;;;;;;;21.12;58.16;98960.41;5034744;28;20029;-56
2022/06/22 05:18:01;;;;;;;16.48;4.88;;;;;;;22.05;55.72;98958.28;5049060;28;20113;-56
2022/06/22 05:20:34;;;;;;;13.98;4.35;;;;;;;22.56;53.87;98960.06;5026614;28;20108;-56
2022/06/22 05:23:00;;;;;;;15.77;4.72;;;;;;;21.53;56.26;98967.34;5043447;28;20394;-56
2022/06/22 05:25:26;;;;;;;13.07;4.25;;;;;;;20.97;58.46;98958.94;5038650;28;20029;-57
2022/06/22 05:27:55;;;;;;;11.35;3.97;;;;;;;20.51;60.91;98951.25;5051040;28;20437;-56
2022/06/22 05:30:20;;;;;;;13.90;4.95;;;;;;;20.12;61.47;98948.22;5066945;28;20514;-56
2022/06/22 05:32:49;;;;;;;12.35;4.65;;;;;;;20.57;60.20;98950.03;5039834;28;20029;-56
2022/06/22 05:35:16;;;;;;;10.90;5.15;;;;;;;19.77;61.92;98949.94;5044457;28;20032;-56
2022/06/22 05:37:45;;;;;;;13.27;5.00;;;;;;;20.37;60.31;98957.63;5017360;28;20021;-56
2022/06/22 05:40:10;;;;;;;16.13;5.40;;;;;;;20.72;58.94;98952.31;5037445;28;20459;-55
2022/06/22 05:42:36;;;;;;;16.70;5.15;;;;;;;20.34;59.72;98952.78;5053257;28;20059;-56
2022/06/22 05:45:01;;;;;;;14.48;4.80;;;;;;;19.70;62.04;98944.91;5037635;28;20025;-55
2022/06/22 05:47:32;;;;;;;22.75;5.20;;;;;;;19.03;64.10;98945.63;5054510;28;20028;-56
2022/06/22 05:50:15;;;;;;;20.45;6.20;;;;;;;17.92;68.94;98952.09;5052986;28;20020;-55
2022/06/22 05:52:49;;;;;;;14.27;5.13;;;;;;;19.32;65.62;98955.28;5068262;28;20471;-54
2022/06/22 05:55:17;;;;;;;32.40;5.75;;;;;;;19.37;63.19;98947.06;5033502;28;20126;-56
2022/06/22 05:57:46;;;;;;;22.88;6.15;;;;;;;19.60;62.48;98940.50;5050032;28;20025;-56
2022/06/22 06:00:20;;;;;;;18.60;6.20;;;;;;;19.53;61.64;98950.19;5037395;28;20017;-56
2022/06/22 06:03:01;;;;;;;16.98;5.90;;;;;;;19.90;59.97;98943.59;5048023;28;20173;-54
2022/06/22 06:05:39;;;;;;;23.02;6.68;;;;;;;18.85;64.36;98947.38;5050683;28;20020;-57
2022/06/22 06:08:10;;;;;;;21.13;6.63;;;;;;;19.12;63.88;98951.94;5054123;28;20453;-55
2022/06/22 06:10:38;;;;;;;16.33;4.90;;;;;;;21.28;58.39;98956.09;5071128;28;20048;-55
2022/06/22 06:13:03;;;;;;;16.38;5.28;;;;;;;22.24;55.55;98955.22;5069500;28;20024;-55
2022/06/22 06:15:30;;;;;;;21.30;5.30;;;;;;;21.63;58.82;98958.84;5071044;28;20082;-56
2022/06/22 06:17:57;;;;;;;25.15;5.90;;;;;;;21.48;59.37;98972.97;5038380;28;20108;-55
2022/06/22 06:20:39;;;;;;;25.70;6.53;;;;;;;21.65;57.73;98967.50;5052030;28;20386;-56
2022/06/22 06:23:13;;;;;;;23.48;5.70;;;;;;;21.93;57.17;98978.06;5044027;28;20024;-56
2022/06/22 06:28:40;;;;;;;24.20;5.25;;;;;;;25.30;48.39;98993.22;5044320;28;20163;-56
2022/06/22 06:31:11;;;;;;;25.27;5.00;;;;;;;26.53;45.86;98995.44;5049721;28;20029;-58
2022/06/22 06:33:38;;;;;;;23.83;5.30;;;;;;;25.98;46.14;99004.19;5028069;28;20025;-57
2022/06/22 06:36:08;;;;;;;18.10;4.82;;;;;;;27.42;43.19;98985.72;5066541;28;20109;-55
2022/06/22 06:38:39;;;;;;;20.50;4.70;;;;;;;28.22;41.47;98986.13;5068615;28;20040;-56
2022/06/22 06:41:07;;;;;;;19.75;4.57;;;;;;;27.82;40.48;98992.84;5037320;28;20021;-56
2022/06/22 06:44:18;;;;;;;16.20;4.57;;;;;;;27.65;40.33;98989.34;5070497;28;20306;-56
2022/06/22 06:46:53;;;;;;;16.65;4.55;;;;;;;28.24;39.52;98997.59;5033182;28;20279;-56
2022/06/22 06:49:29;;;;;;;12.88;4.38;;;;;;;29.11;36.44;98989.59;5035785;28;20041;-56
2022/06/22 06:51:55;;;;;;;14.40;4.50;;;;;;;29.44;36.76;98997.91;5025860;28;20033;-56
2022/06/22 06:54:21;;;;;;;16.73;4.45;;;;;;;27.21;39.33;99003.38;5069447;28;20031;-56
2022/06/22 06:57:07;;;;;;;13.70;4.70;;;;;;;26.19;42.01;98994.94;5049422;28;20425;-56
2022/06/22 06:59:33;;;;;;;14.48;4.60;;;;;;;26.88;40.85;98985.31;5049428;28;20076;-56
2022/06/22 07:02:02;;;;;;;13.15;4.55;;;;;;;26.37;41.65;98982.47;5069650;28;20033;-57
2022/06/22 07:04:31;;;;;;;14.20;4.80;;;;;;;27.03;39.31;98971.88;5070029;28;20059;-58
2022/06/22 07:07:04;;;;;;;11.35;4.13;;;;;;;29.14;35.90;98962.03;5020406;28;20029;-57
2022/06/22 07:09:34;;;;;;;15.43;4.47;;;;;;;28.57;36.16;98950.91;5069968;28;20037;-58
2022/06/22 07:12:26;;;;;;;10.40;4.07;;;;;;;30.35;34.20;98958.28;5051920;28;20606;-57
2022/06/22 07:14:51;;;;;;;11.20;4.18;;;;;;;29.98;35.20;98957.16;5057436;28;20037;-57
2022/06/22 07:17:18;;;;;;;11.80;3.85;;;;;;;30.29;34.03;98955.88;5069096;28;20031;-57
2022/06/22 07:19:46;;;;;;;16.60;4.32;;;;;;;28.52;36.34;98942.97;5069361;28;20035;-57
2022/06/22 07:22:25;;;;;;;8.60;4.25;;;;;;;28.82;36.24;98945.78;5069335;28;20044;-57
2022/06/22 07:25:00;;;;;;;12.00;4.30;;;;;;;29.07;34.86;98947.34;5047946;28;20029;-56
2022/06/22 07:27:39;;;;;;;12.02;4.05;;;;;;;28.59;36.21;98954.09;5030893;28;20400;-57
2022/06/22 07:30:29;;;;;;;20.30;3.88;;;;;;;28.24;37.87;98957.03;5045093;28;20031;-57
2022/06/22 07:32:54;;;;;;;28.15;5.22;;;;;;;28.02;38.01;98961.38;5064183;28;20052;-57
2022/06/22 07:35:28;;;;;;;19.95;4.82;;;;;;;26.94;40.27;98950.09;5065417;28;20443;-57
2022/06/22 07:38:21;;;;;;;27.52;4.80;;;;;;;29.00;37.54;98945.25;5061166;28;20115;-56
2022/06/22 07:43:32;;;;;;;26.33;5.25;;;;;;;31.05;34.30;98945.38;5068177;28;20094;-56
2022/06/22 07:45:58;;;;;;;23.25;5.13;;;;;;;30.09;35.19;98932.38;5065689;28;20041;-57
2022/06/22 07:48:23;;;;;;;23.10;4.50;;;;;;;28.65;37.27;98929.78;5068666;28;20079;-59
2022/06/22 07:50:51;;;;;;;26.77;4.60;;;;;;;26.75;40.30;98925.28;5050990;28;20106;-57
2022/06/22 07:53:23;;;;;;;15.60;4.95;;;;;;;29.21;37.44;98925.47;5034725;28;20063;-57
2022/06/22 07:55:57;;;;;;;24.15;5.13;;;;;;;27.31;39.18;98925.78;5046398;28;20040;-57
2022/06/22 07:58:26;;;;;;;29.85;4.78;;;;;;;29.60;35.57;98934.22;5041798;28;20471;-57
2022/06/22 08:00:54;;;;;;;21.40;4.10;;;;;;;29.92;36.11;98930.25;5068274;28;20024;-57
2022/06/22 08:04:09;;;;;;;25.25;5.03;;;;;;;29.70;35.19;98923.69;5045866;28;20029;-57
2022/06/22 08:06:40;;;;;;;16.38;4.32;;;;;;;28.02;38.43;98928.31;4969277;28;20386;-56
2022/06/22 08:09:16;;;;;;;18.13;4.32;;;;;;;27.87;38.28;98937.50;5017677;28;20043;-57
2022/06/22 08:12:04;;;;;;;19.50;4.05;;;;;;;30.56;34.33;98944.66;5054323;28;20079;-56
2022/06/22 08:14:39;;;;;;;28.43;4.33;;;;;;;30.51;33.63;98951.34;5029703;28;20067;-56
2022/06/22 08:17:19;;;;;;;16.73;3.40;;;;;;;30.66;34.07;98954.22;5028269;28;20051;-56
2022/06/22 08:19:44;;;;;;;17.88;3.60;;;;;;;29.24;36.47;98946.78;5068618;28;20025;-57
2022/06/22 08:22:10;;;;;;;14.73;3.67;;;;;;;27.87;37.63;98946.53;5067718;28;20078;-57
2022/06/22 08:24:40;;;;;;;13.15;3.60;;;;;;;26.88;38.15;98941.31;5039813;28;20044;-56
2022/06/22 08:27:06;;;;;;;20.23;4.10;;;;;;;28.27;36.82;98936.22;5050278;28;20028;-55
2022/06/22 08:29:32;;;;;;;28.67;4.43;;;;;;;30.93;33.12;98944.56;5026071;28;20908;-56
2022/06/22 08:32:00;;;;;;;22.52;3.90;;;;;;;30.01;34.75;98947.31;5068855;28;20115;-57
2022/06/22 08:34:33;;;;;;;30.67;4.60;;;;;;;28.43;37.27;98945.16;5051043;28;20028;-57
2022/06/22 08:37:06;;;;;;;19.42;4.00;;;;;;;29.85;35.13;98945.59;5031865;28;20028;-56
2022/06/22 08:39:38;;;;;;;14.95;3.20;;;;;;;30.36;34.40;98940.56;5034905;28;20233;-56
2022/06/22 08:42:34;;;;;;;15.13;3.58;;;;;;;29.93;34.97;98942.88;5032557;28;20511;-56
2022/06/22 08:45:09;;;;;;;17.05;3.17;;;;;;;29.92;33.00;98938.53;5063462;28;20025;-56
2022/06/22 08:47:39;;;;;;;16.85;3.28;;;;;;;30.73;32.43;98938.47;5067856;28;20101;-56
2022/06/22 08:50:26;;;;;;;12.88;3.20;;;;;;;30.97;32.57;98933.50;5033672;28;20017;-56
2022/06/22 08:53:09;;;;;;;29.67;3.60;;;;;;;29.57;34.19;98939.69;5042738;28;20429;-55
2022/06/22 08:55:52;;;;;;;20.02;4.05;;;;;;;29.21;33.50;98933.75;5067997;28;20083;-56
2022/06/22 08:58:37;;;;;;;11.73;2.88;;;;;;;28.48;34.89;98927.53;5066926;28;20032;-55
2022/06/22 09:01:21;;;;;;;10.38;3.42;;;;;;;29.30;33.21;98931.47;5057901;28;20029;-56
2022/06/22 09:04:05;;;;;;;17.30;3.40;;;;;;;29.58;33.16;98931.06;5062746;28;20125;-55
2022/06/22 09:06:39;;;;;;;12.68;3.25;;;;;;;28.32;35.00;98928.44;5063998;28;20037;-55
2022/06/22 09:09:12;;;;;;;10.52;3.03;;;;;;;27.70;33.62;98931.25;5066831;28;20479;-55
2022/06/22 09:11:38;;;;;;;9.35;2.90;;;;;;;29.33;30.79;98933.53;5055640;28;20072;-55
2022/06/22 09:14:14;;;;;;;7.13;2.40;;;;;;;29.11;31.59;98926.13;5057100;28;20037;-56
2022/06/22 09:16:58;;;;;;;5.97;2.67;;;;;;;28.46;32.62;98921.63;5036000;28;20099;-56
2022/06/22 09:19:46;;;;;;;10.88;2.53;;;;;;;28.68;31.84;98928.22;5060401;28;20025;-56
2022/06/22 09:22:45;;;;;;;7.45;2.40;;;;;;;28.36;33.42;98923.00;5062147;28;20048;-55
2022/06/22 09:25:37;;;;;;;14.07;2.45;;;;;;;28.56;33.72;98926.50;5066684;28;20070;-56
2022/06/22 09:28:18;;;;;;;13.20;2.70;;;;;;;27.28;33.86;98931.19;5036843;28;20518;-55
2022/06/22 09:31:22;;;;;;;8.10;2.63;;;;;;;27.25;35.50;98927.19;5047660;28;20060;-55
2022/06/22 09:34:19;;;;;;;12.43;3.00;;;;;;;27.61;34.68;98916.13;5040432;28;20112;-56
2022/06/22 09:37:00;;;;;;;8.15;3.03;;;;;;;26.98;34.19;98925.41;5015846;28;20055;-57
2022/06/22 09:39:28;;;;;;;7.00;2.90;;;;;;;26.86;34.90;98921.63;5056786;28;20039;-57
2022/06/22 09:42:23;;;;;;;8.35;2.40;;;;;;;27.93;32.70;98916.75;5067710;28;20033;-56
2022/06/22 09:45:07;;;;;;;8.25;2.90;;;;;;;26.25;34.86;98919.38;5066399;28;20020;-57
2022/06/22 09:47:40;;;;;;;8.13;2.95;;;;;;;28.24;33.55;98917.69;5059315;28;20496;-56
2022/06/22 09:50:25;;;;;;;8.30;2.75;;;;;;;27.39;33.92;98904.69;5054409;28;20037;-57
2022/06/22 09:53:15;;;;;;;10.05;2.75;;;;;;;28.14;33.18;98910.81;5040117;28;20029;-57
2022/06/22 09:58:55;;;;;;;7.07;2.42;;;;;;;26.64;33.59;98897.56;5066613;28;20453;-55
2022/06/22 10:02:08;;;;;;;7.22;2.50;;;;;;;25.85;33.26;98895.59;5043276;28;20111;-55
2022/06/22 10:05:09;;;;;;;12.48;2.63;;;;;;;26.79;33.58;98893.19;4978783;28;20041;-55
2022/06/22 10:08:06;;;;;;;10.52;3.13;;;;;;;26.68;34.00;98892.94;4928273;28;20077;-55
2022/06/22 10:10:59;;;;;;;11.45;2.58;;;;;;;26.11;35.32;98891.53;5008900;28;20047;-55
2022/06/22 10:13:31;;;;;;;9.13;2.65;;;;;;;25.66;35.83;98909.16;5043836;28;20365;-55
2022/06/22 10:16:22;;;;;;;7.82;2.72;;;;;;;26.04;35.56;98892.19;5046643;28;20028;-54
2022/06/22 10:19:09;;;;;;;8.13;2.70;;;;;;;26.68;35.30;98893.75;5032269;28;20116;-56
2022/06/22 10:21:57;;;;;;;5.70;2.65;;;;;;;26.28;35.79;98893.13;5030120;28;20104;-55
2022/06/22 10:24:44;;;;;;;5.13;2.50;;;;;;;26.29;36.29;98903.78;5054323;28;20099;-55
2022/06/22 10:27:15;;;;;;;10.20;3.17;;;;;;;27.28;34.49;98892.66;5049795;28;20064;-57
2022/06/22 10:30:01;;;;;;;4.72;2.40;;;;;;;26.65;34.84;98891.69;5033861;28;20327;-56
2022/06/22 10:32:50;;;;;;;6.00;2.80;;;;;;;26.88;35.17;98880.03;5035392;28;20025;-55
2022/06/22 10:35:34;;;;;;;;;;;;;;;25.96;36.39;98895.88;5047887;28;20621;-53
2022/06/22 10:38:21;;;;;;;6.60;2.72;;;;;;;26.63;35.08;98904.19;5031266;28;19928;-55
2022/06/22 10:47:13;;;;;;;5.18;2.60;;;;;;;25.51;35.84;98897.81;5048651;28;20395;-57
2022/06/22 10:49:58;;;;;;;11.52;3.13;;;;;;;26.17;34.14;98895.63;5049202;28;20112;-56
2022/06/22 10:52:36;;;;;;;7.75;2.92;;;;;;;26.14;34.81;98899.88;5031289;28;20047;-56
2022/06/22 10:55:10;;;;;;;7.95;2.80;;;;;;;25.66;36.21;98899.00;5049356;28;20305;-56
2022/06/22 10:57:38;;;;;;;4.78;2.60;;;;;;;26.61;35.98;98895.50;5049356;28;20067;-56
2022/06/22 11:00:09;;;;;;;4.80;2.70;;;;;;;26.75;35.57;98884.06;5049921;28;20035;-56
2022/06/22 11:03:02;;;;;;;5.57;2.50;;;;;;;26.47;35.73;98888.50;5049539;28;20025;-56
2022/06/22 11:05:36;;;;;;;6.43;2.42;;;;;;;27.07;34.53;98893.00;5048944;28;20067;-56
2022/06/22 11:08:11;;;;;;;5.13;2.78;;;;;;;26.17;34.41;98887.41;5048441;28;20104;-55
2022/06/22 11:10:59;;;;;;;6.40;2.65;;;;;;;26.79;35.37;98891.22;5048185;28;20043;-56
2022/06/22 11:14:06;;;;;;;10.50;2.63;;;;;;;26.51;35.08;98893.28;5069923;28;20032;-57
2022/06/22 11:16:32;;;;;;;5.63;2.42;;;;;;;26.77;35.01;98896.28;5008340;28;20544;-55
2022/06/22 11:19:03;;;;;;;7.65;2.40;;;;;;;27.58;32.46;98900.34;5069445;28;20029;-56
2022/06/22 11:21:49;;;;;;;6.93;2.38;;;;;;;26.82;32.01;98898.75;5069360;28;20037;-56
2022/06/22 11:24:39;;;;;;;6.55;2.45;;;;;;;26.58;34.07;98899.78;5067654;28;20124;-56
2022/06/22 11:33:42;;;;;;;8.05;2.83;;;;;;;26.69;33.91;98891.78;5065970;28;20077;-55
2022/06/22 11:36:07;;;;;;;3.90;2.40;;;;;;;26.62;31.32;98900.66;5049806;28;20506;-54
2022/06/22 11:38:42;;;;;;;7.80;2.92;;;;;;;26.90;31.24;98899.72;5068809;28;20127;-55
2022/06/22 11:41:32;;;;;;;6.25;2.25;;;;;;;26.99;29.80;98896.78;5069250;28;20024;-56
2022/06/22 11:44:17;;;;;;;4.20;2.30;;;;;;;27.01;30.39;98900.75;5066275;28;20028;-56
2022/06/22 11:46:57;;;;;;;3.58;2.58;;;;;;;26.53;31.39;98907.50;5041559;28;20031;-55
2022/06/22 11:50:02;;;;;;;6.40;2.47;;;;;;;27.28;30.83;98904.50;5020064;28;20028;-55
2022/06/22 11:52:49;;;;;;;4.65;2.55;;;;;;;26.99;29.98;98902.28;5048679;28;20036;-54
2022/06/22 11:55:26;;;;;;;7.32;2.30;;;;;;;27.63;30.90;98892.59;5035524;28;20098;-53
2022/06/22 11:58:05;;;;;;;5.68;2.47;;;;;;;27.40;31.08;98888.97;5026141;28;20025;-55
2022/06/22 12:00:43;;;;;;;5.40;2.28;;;;;;;27.70;32.08;98897.41;5044874;28;20088;-55
2022/06/22 12:03:11;;;;;;;7.60;2.40;;;;;;;28.40;29.60;98888.00;5062882;28;20021;-55
2022/06/22 12:05:47;;;;;;;10.77;2.95;;;;;;;27.76;25.74;98887.72;5061720;28;20024;-57
2022/06/22 12:08:31;;;;;;;4.93;2.38;;;;;;;28.48;27.32;98881.50;5046072;28;20413;-55
2022/06/22 12:11:08;;;;;;;6.88;2.70;;;;;;;27.79;31.37;98883.44;5065492;28;20051;-55
2022/06/22 12:15:04;;;;;;;6.07;2.67;;;;;;;28.25;32.36;98883.44;5068761;28;20028;-55
2022/06/22 12:16:37;;;;;;;8.07;2.60;;;;;;;27.97;29.84;98881.81;5036759;28;20033;-54
2022/06/22 12:19:15;;;;;;;4.32;2.33;;;;;;;28.75;28.65;98875.94;5027467;28;20059;-56
2022/06/22 12:21:55;;;;;;;5.65;2.30;;;;;;;28.40;29.14;98877.00;5039054;28;20027;-55
2022/06/22 12:24:28;;;;;;;6.68;2.55;;;;;;;28.73;28.40;98868.06;5048609;28;20060;-55
2022/06/22 12:27:28;;;;;;;6.15;2.30;;;;;;;28.87;28.34;98864.69;5051513;28;20062;-55
2022/06/22 12:29:53;;;;;;;;;;;;;;;27.96;29.44;98855.44;5064432;28;20033;-55
2022/06/22 12:32:29;;;;;;;4.28;2.20;;;;;;;29.07;27.40;98856.31;5068080;28;19920;-56
2022/06/22 12:35:05;;;;;;;5.15;2.60;;;;;;;28.32;27.70;98845.78;5038590;28;20031;-56